VOE32K LEZL-LEXJ
Flight info
| Callsign | VOE32K |
|---|---|
| Flight time | N/A |
| Altitude | 34000 |
| Route | HIJ DCT PARKA DCT TLD DCT SIE DCT XERMA DCT ARLUN N865 UNGAS Y753 EMANU |
| Aircraft | A319/M-SDE3FGHIRWY/LB1 |
Departure
| Time | 2026-04-30 14:28 |
|---|---|
| Airport | Seville Airport (LEZL) |
Arrival
| Time | N/A |
|---|---|
| Airport | Seve Ballesteros-Santander Airport (LEXJ) |
| Time | Latitude | Longitude | Altitude | Speed | Heading |
|---|---|---|---|---|---|
| 2026-04-30 13:57 | 37.42303 | -5.89842 | 94 ft | 0 kts | 315° |
| 2026-04-30 14:16 | 37.42286 | -5.89821 | 95 ft | 4 kts | 321° |
| 2026-04-30 14:16 | 37.42263 | -5.89802 | 93 ft | 4 kts | 335° |
| 2026-04-30 14:16 | 37.42240 | -5.89795 | 94 ft | 4 kts | 19° |
| 2026-04-30 14:17 | 37.42229 | -5.89802 | 93 ft | 1 kts | 44° |
| 2026-04-30 14:17 | 37.42228 | -5.89804 | 93 ft | 0 kts | 44° |
| 2026-04-30 14:18 | 37.42260 | -5.89752 | 94 ft | 11 kts | 70° |
| 2026-04-30 14:19 | 37.42126 | -5.89543 | 97 ft | 17 kts | 134° |
| 2026-04-30 14:19 | 37.42046 | -5.89439 | 98 ft | 17 kts | 134° |
| 2026-04-30 14:19 | 37.41984 | -5.89323 | 100 ft | 16 kts | 98° |
| 2026-04-30 14:20 | 37.41983 | -5.89185 | 100 ft | 16 kts | 90° |
| 2026-04-30 14:20 | 37.41983 | -5.89026 | 101 ft | 20 kts | 90° |
| 2026-04-30 14:20 | 37.41985 | -5.88595 | 104 ft | 28 kts | 91° |
| 2026-04-30 14:21 | 37.41986 | -5.88347 | 105 ft | 28 kts | 90° |
| 2026-04-30 14:21 | 37.41986 | -5.88101 | 106 ft | 28 kts | 90° |
| 2026-04-30 14:21 | 37.41987 | -5.87616 | 109 ft | 27 kts | 89° |
| 2026-04-30 14:22 | 37.41987 | -5.87399 | 113 ft | 22 kts | 95° |
| 2026-04-30 14:22 | 37.41970 | -5.87331 | 115 ft | 0 kts | 126° |
| 2026-04-30 14:24 | 37.41858 | -5.87377 | 116 ft | 19 kts | 233° |
| 2026-04-30 14:24 | 37.41800 | -5.87511 | 117 ft | 17 kts | 269° |
| 2026-04-30 14:25 | 37.41801 | -5.87546 | 116 ft | 0 kts | 270° |
| 2026-04-30 14:26 | 37.41801 | -5.87547 | 116 ft | 1 kts | 270° |
| 2026-04-30 14:26 | 37.41800 | -5.87618 | 114 ft | 27 kts | 269° |
| 2026-04-30 14:26 | 37.41793 | -5.89394 | 157 ft | 156 kts | 269° |
| 2026-04-30 14:27 | 37.41790 | -5.90297 | 652 ft | 150 kts | 268° |
| 2026-04-30 14:28 | 37.44876 | -5.95977 | 2749 ft | 233 kts | 316° |
| 2026-04-30 14:28 | 37.46123 | -5.97437 | 3325 ft | 255 kts | 316° |
| 2026-04-30 14:28 | 37.47446 | -5.98989 | 4240 ft | 264 kts | 316° |
| 2026-04-30 14:28 | 37.48799 | -6.00578 | 5223 ft | 270 kts | 315° |
| 2026-04-30 14:29 | 37.51598 | -6.03872 | 7136 ft | 279 kts | 315° |
| 2026-04-30 14:29 | 37.53980 | -6.06684 | 8709 ft | 286 kts | 314° |
| 2026-04-30 14:30 | 37.59255 | -6.10640 | 10692 ft | 335 kts | 358° |
| 2026-04-30 14:31 | 37.64156 | -6.07668 | 12473 ft | 351 kts | 41° |
| 2026-04-30 14:31 | 37.67861 | -6.03557 | 14124 ft | 358 kts | 42° |
| 2026-04-30 14:31 | 37.69129 | -6.02141 | 14619 ft | 361 kts | 42° |
| 2026-04-30 14:32 | 37.72930 | -5.97901 | 16038 ft | 369 kts | 42° |
| 2026-04-30 14:32 | 37.74864 | -5.95743 | 16738 ft | 373 kts | 42° |
| 2026-04-30 14:32 | 37.76816 | -5.93565 | 17439 ft | 377 kts | 42° |
| 2026-04-30 14:33 | 37.78796 | -5.91358 | 18127 ft | 381 kts | 42° |
| 2026-04-30 14:33 | 37.82816 | -5.86885 | 19329 ft | 390 kts | 42° |
| 2026-04-30 14:33 | 37.84862 | -5.84602 | 19915 ft | 394 kts | 42° |
| 2026-04-30 14:34 | 37.86903 | -5.82324 | 20495 ft | 399 kts | 42° |
| 2026-04-30 14:34 | 37.88994 | -5.79986 | 21087 ft | 403 kts | 42° |
| 2026-04-30 14:34 | 37.91100 | -5.77628 | 21664 ft | 407 kts | 42° |
| 2026-04-30 14:34 | 37.93236 | -5.75234 | 22230 ft | 412 kts | 41° |
| 2026-04-30 14:35 | 37.97570 | -5.70362 | 23355 ft | 421 kts | 41° |
| 2026-04-30 14:35 | 37.99769 | -5.67885 | 23873 ft | 425 kts | 41° |
| 2026-04-30 14:35 | 38.01989 | -5.65393 | 24354 ft | 428 kts | 41° |
| 2026-04-30 14:36 | 38.04230 | -5.62880 | 24824 ft | 431 kts | 41° |
| 2026-04-30 14:36 | 38.06474 | -5.60355 | 25309 ft | 433 kts | 42° |
| 2026-04-30 14:36 | 38.08730 | -5.57814 | 25837 ft | 434 kts | 42° |
| 2026-04-30 14:36 | 38.10991 | -5.55267 | 26314 ft | 436 kts | 42° |
| 2026-04-30 14:37 | 38.13267 | -5.52698 | 26759 ft | 439 kts | 42° |
| 2026-04-30 14:37 | 38.15559 | -5.50109 | 27186 ft | 442 kts | 42° |
| 2026-04-30 14:37 | 38.17858 | -5.47510 | 27615 ft | 445 kts | 42° |
| 2026-04-30 14:37 | 38.20176 | -5.44882 | 28051 ft | 448 kts | 42° |
| 2026-04-30 14:38 | 38.22503 | -5.42242 | 28471 ft | 451 kts | 42° |
| 2026-04-30 14:38 | 38.24852 | -5.39580 | 28895 ft | 453 kts | 42° |
| 2026-04-30 14:38 | 38.27217 | -5.36898 | 29308 ft | 456 kts | 42° |
| 2026-04-30 14:38 | 38.29595 | -5.34202 | 29710 ft | 459 kts | 42° |
| 2026-04-30 14:39 | 38.31991 | -5.31485 | 30079 ft | 463 kts | 42° |
| 2026-04-30 14:39 | 38.34397 | -5.28751 | 30403 ft | 466 kts | 42° |
| 2026-04-30 14:39 | 38.36814 | -5.25993 | 30741 ft | 468 kts | 42° |
| 2026-04-30 14:40 | 38.41690 | -5.20413 | 31389 ft | 473 kts | 43° |
| 2026-04-30 14:40 | 38.44110 | -5.17642 | 31700 ft | 475 kts | 43° |
| 2026-04-30 14:40 | 38.46731 | -5.14983 | 32099 ft | 476 kts | 33° |
| 2026-04-30 14:40 | 38.49588 | -5.12966 | 32536 ft | 475 kts | 23° |
| 2026-04-30 14:41 | 38.52686 | -5.11567 | 32970 ft | 473 kts | 13° |
| 2026-04-30 14:41 | 38.55919 | -5.10844 | 33428 ft | 471 kts | 4° |
| 2026-04-30 14:41 | 38.59183 | -5.10821 | 33886 ft | 468 kts | 354° |
| 2026-04-30 14:41 | 38.62429 | -5.11154 | 34043 ft | 466 kts | 354° |
| 2026-04-30 14:42 | 38.65617 | -5.11480 | 34067 ft | 454 kts | 354° |
| 2026-04-30 14:42 | 38.68743 | -5.11797 | 34068 ft | 448 kts | 354° |
| 2026-04-30 14:42 | 38.74919 | -5.12423 | 34067 ft | 445 kts | 354° |
| 2026-04-30 14:43 | 38.81095 | -5.13056 | 34068 ft | 444 kts | 354° |
| 2026-04-30 14:43 | 38.87255 | -5.13691 | 34070 ft | 444 kts | 354° |
| 2026-04-30 14:44 | 38.93424 | -5.14321 | 34065 ft | 444 kts | 354° |
| 2026-04-30 14:44 | 38.99567 | -5.13776 | 34071 ft | 445 kts | 14° |
| 2026-04-30 14:45 | 39.05231 | -5.10696 | 34068 ft | 443 kts | 33° |
| 2026-04-30 14:45 | 39.10418 | -5.06402 | 34061 ft | 443 kts | 34° |
| 2026-04-30 14:46 | 39.15574 | -5.02131 | 34050 ft | 444 kts | 34° |
| 2026-04-30 14:46 | 39.20759 | -4.97822 | 34049 ft | 444 kts | 34° |
| 2026-04-30 14:47 | 39.25957 | -4.93512 | 34038 ft | 444 kts | 33° |
| 2026-04-30 14:47 | 39.31153 | -4.89193 | 34046 ft | 445 kts | 34° |
| 2026-04-30 14:48 | 39.36357 | -4.84857 | 34052 ft | 445 kts | 34° |
| 2026-04-30 14:48 | 39.41558 | -4.80512 | 34050 ft | 445 kts | 34° |
| 2026-04-30 14:49 | 39.46768 | -4.76157 | 34058 ft | 446 kts | 34° |
| 2026-04-30 14:49 | 39.51973 | -4.71790 | 34064 ft | 446 kts | 33° |
| 2026-04-30 14:50 | 39.59780 | -4.65222 | 34070 ft | 446 kts | 33° |
| 2026-04-30 14:51 | 39.67587 | -4.58646 | 34059 ft | 446 kts | 34° |
| 2026-04-30 14:52 | 39.75401 | -4.52049 | 34053 ft | 447 kts | 33° |
| 2026-04-30 14:52 | 39.83182 | -4.45460 | 34058 ft | 447 kts | 33° |
| 2026-04-30 14:53 | 39.91003 | -4.38816 | 34071 ft | 448 kts | 33° |
| 2026-04-30 14:54 | 40.01811 | -4.30785 | 34079 ft | 448 kts | 25° |
| 2026-04-30 14:55 | 40.10280 | -4.25635 | 34076 ft | 448 kts | 25° |
| 2026-04-30 14:56 | 40.21560 | -4.18734 | 34091 ft | 447 kts | 25° |
| 2026-04-30 14:57 | 40.30010 | -4.13539 | 34093 ft | 447 kts | 25° |
| 2026-04-30 14:58 | 40.41252 | -4.06635 | 34103 ft | 446 kts | 25° |
| 2026-04-30 14:58 | 40.49633 | -4.01457 | 34120 ft | 445 kts | 24° |
| 2026-04-30 15:00 | 40.63617 | -3.92790 | 34134 ft | 444 kts | 25° |
| 2026-04-30 15:01 | 40.74784 | -3.85842 | 34139 ft | 444 kts | 25° |
| 2026-04-30 15:01 | 40.83149 | -3.80619 | 34086 ft | 443 kts | 24° |
| 2026-04-30 15:02 | 40.88712 | -3.77128 | 34088 ft | 442 kts | 24° |
| 2026-04-30 15:03 | 41.02600 | -3.68409 | 34085 ft | 442 kts | 24° |
| 2026-04-30 15:04 | 41.16762 | -3.60807 | 34082 ft | 437 kts | 5° |
| 2026-04-30 15:06 | 41.31866 | -3.60903 | 34072 ft | 434 kts | 356° |
| 2026-04-30 15:07 | 41.43913 | -3.61192 | 34070 ft | 434 kts | 355° |
| 2026-04-30 15:08 | 41.55998 | -3.61424 | 34077 ft | 434 kts | 356° |
| 2026-04-30 15:08 | 41.65068 | -3.61374 | 33802 ft | 434 kts | 356° |
| 2026-04-30 15:09 | 41.71079 | -3.61349 | 32980 ft | 429 kts | 356° |
| 2026-04-30 15:09 | 41.77010 | -3.61352 | 31963 ft | 424 kts | 356° |
| 2026-04-30 15:10 | 41.82875 | -3.61366 | 30974 ft | 418 kts | 356° |
| 2026-04-30 15:11 | 41.94377 | -3.61366 | 29054 ft | 406 kts | 356° |
| 2026-04-30 15:11 | 41.99978 | -3.61355 | 28183 ft | 399 kts | 356° |
| 2026-04-30 15:12 | 42.08191 | -3.61622 | 26914 ft | 388 kts | 353° |
| 2026-04-30 15:13 | 42.13543 | -3.62050 | 26055 ft | 383 kts | 353° |
| 2026-04-30 15:14 | 42.24083 | -3.62777 | 24298 ft | 376 kts | 354° |
| 2026-04-30 15:14 | 42.31872 | -3.63268 | 22865 ft | 370 kts | 354° |
| 2026-04-30 15:16 | 42.44289 | -3.65214 | 20680 ft | 351 kts | 349° |
| 2026-04-30 15:17 | 42.53839 | -3.67117 | 18999 ft | 343 kts | 349° |
| 2026-04-30 15:18 | 42.65418 | -3.69427 | 16937 ft | 331 kts | 349° |
| 2026-04-30 15:19 | 42.72138 | -3.71007 | 15795 ft | 324 kts | 345° |